Dawu, China
Current Conditions -  °F | °C
As of 6:00 PM on Monday 20 Oct 2014 (Local Time) from ZUUU Reporting Station
Scattered Clouds Scattered Clouds  
Wind Chill: 75°   Ceiling: Unl
Heat Index: 75°   Visibility: 5mi
Dew Point: 57°   Wind: 4mph
Humidity: 53%   Direction: 120°ESE
Pressure: 29.97"   Gusts: NA
Location:  30.98°N, 101.12°E
Report Text: ZUUU 201000Z 12002MPS 070V140 8000 SCT050 24/14 Q1015 NOSIG
Loading
Personal Weather Stations






























Interactive Weather Map
Tropical Storm Tracking
New forecast layout! Learn more

10-Day Weather Forecast

Advertisements
Track Severe Weather on mobile